sensor_id;sensor_type;location;lat;lon;timestamp;P1;durP1;ratioP1;P2;durP2;ratioP2
11427;SDS011;5770;44.504;11.346;2023-05-21T00:01:02;44.60;;;32.25;;
11427;SDS011;5770;44.504;11.346;2023-05-21T00:03:30;43.22;;;32.40;;
11427;SDS011;5770;44.504;11.346;2023-05-21T00:05:58;42.08;;;30.77;;
11427;SDS011;5770;44.504;11.346;2023-05-21T00:08:27;38.00;;;31.85;;
11427;SDS011;5770;44.504;11.346;2023-05-21T00:10:55;39.03;;;31.15;;
11427;SDS011;5770;44.504;11.346;2023-05-21T00:13:23;44.45;;;30.88;;
11427;SDS011;5770;44.504;11.346;2023-05-21T00:15:50;41.53;;;30.40;;
11427;SDS011;5770;44.504;11.346;2023-05-21T00:18:18;41.75;;;30.33;;
11427;SDS011;5770;44.504;11.346;2023-05-21T00:20:46;41.42;;;30.88;;
11427;SDS011;5770;44.504;11.346;2023-05-21T00:23:13;39.75;;;29.17;;
11427;SDS011;5770;44.504;11.346;2023-05-21T00:25:42;38.10;;;29.08;;
11427;SDS011;5770;44.504;11.346;2023-05-21T00:28:10;36.85;;;26.60;;
11427;SDS011;5770;44.504;11.346;2023-05-21T00:30:39;38.17;;;28.65;;
11427;SDS011;5770;44.504;11.346;2023-05-21T00:33:07;40.35;;;27.30;;
11427;SDS011;5770;44.504;11.346;2023-05-21T00:35:37;35.53;;;27.45;;
11427;SDS011;5770;44.504;11.346;2023-05-21T00:38:05;34.72;;;27.52;;
11427;SDS011;5770;44.504;11.346;2023-05-21T00:40:33;36.67;;;26.75;;
11427;SDS011;5770;44.504;11.346;2023-05-21T00:43:00;39.22;;;28.30;;
11427;SDS011;5770;44.504;11.346;2023-05-21T00:45:27;44.75;;;28.77;;
11427;SDS011;5770;44.504;11.346;2023-05-21T00:47:56;41.85;;;29.17;;
11427;SDS011;5770;44.504;11.346;2023-05-21T00:50:23;46.35;;;31.85;;
11427;SDS011;5770;44.504;11.346;2023-05-21T00:52:51;51.72;;;32.55;;
11427;SDS011;5770;44.504;11.346;2023-05-21T00:55:19;54.03;;;33.13;;
11427;SDS011;5770;44.504;11.346;2023-05-21T00:57:46;53.85;;;33.13;;
11427;SDS011;5770;44.504;11.346;2023-05-21T01:00:14;51.05;;;33.05;;
11427;SDS011;5770;44.504;11.346;2023-05-21T01:02:41;52.13;;;34.22;;
11427;SDS011;5770;44.504;11.346;2023-05-21T01:05:10;48.17;;;33.60;;
11427;SDS011;5770;44.504;11.346;2023-05-21T01:07:39;51.88;;;34.92;;
11427;SDS011;5770;44.504;11.346;2023-05-21T01:10:08;53.72;;;34.58;;
11427;SDS011;5770;44.504;11.346;2023-05-21T01:12:37;53.72;;;35.50;;
11427;SDS011;5770;44.504;11.346;2023-05-21T01:15:05;55.85;;;35.90;;
11427;SDS011;5770;44.504;11.346;2023-05-21T01:17:34;57.85;;;34.53;;
11427;SDS011;5770;44.504;11.346;2023-05-21T01:20:03;51.90;;;35.13;;
11427;SDS011;5770;44.504;11.346;2023-05-21T01:22:35;52.33;;;34.10;;
11427;SDS011;5770;44.504;11.346;2023-05-21T01:25:09;51.00;;;34.95;;
11427;SDS011;5770;44.504;11.346;2023-05-21T01:27:36;52.95;;;34.95;;
11427;SDS011;5770;44.504;11.346;2023-05-21T01:30:03;49.70;;;33.67;;
11427;SDS011;5770;44.504;11.346;2023-05-21T01:32:34;52.05;;;33.22;;
11427;SDS011;5770;44.504;11.346;2023-05-21T01:35:08;48.22;;;33.47;;
11427;SDS011;5770;44.504;11.346;2023-05-21T01:37:36;47.47;;;32.70;;
11427;SDS011;5770;44.504;11.346;2023-05-21T01:40:05;42.13;;;31.35;;
11427;SDS011;5770;44.504;11.346;2023-05-21T01:42:39;44.83;;;30.48;;
11427;SDS011;5770;44.504;11.346;2023-05-21T01:45:09;43.55;;;30.30;;
11427;SDS011;5770;44.504;11.346;2023-05-21T01:47:36;42.47;;;29.58;;
11427;SDS011;5770;44.504;11.346;2023-05-21T01:50:05;40.58;;;29.02;;
11427;SDS011;5770;44.504;11.346;2023-05-21T01:52:33;44.38;;;28.30;;
11427;SDS011;5770;44.504;11.346;2023-05-21T01:55:00;37.50;;;27.38;;
11427;SDS011;5770;44.504;11.346;2023-05-21T01:57:27;39.40;;;27.85;;
11427;SDS011;5770;44.504;11.346;2023-05-21T01:59:56;34.70;;;23.73;;
11427;SDS011;5770;44.504;11.346;2023-05-21T02:02:23;32.45;;;25.52;;
11427;SDS011;5770;44.504;11.346;2023-05-21T02:04:51;33.92;;;25.20;;
11427;SDS011;5770;44.504;11.346;2023-05-21T02:07:18;33.78;;;24.85;;
11427;SDS011;5770;44.504;11.346;2023-05-21T02:09:45;31.80;;;25.15;;
11427;SDS011;5770;44.504;11.346;2023-05-21T02:12:12;32.55;;;23.30;;
11427;SDS011;5770;44.504;11.346;2023-05-21T02:14:39;29.85;;;22.90;;
11427;SDS011;5770;44.504;11.346;2023-05-21T02:17:08;33.65;;;22.40;;
11427;SDS011;5770;44.504;11.346;2023-05-21T02:19:35;28.00;;;20.23;;
11427;SDS011;5770;44.504;11.346;2023-05-21T02:22:02;26.17;;;21.05;;
11427;SDS011;5770;44.504;11.346;2023-05-21T02:24:30;29.92;;;21.15;;
11427;SDS011;5770;44.504;11.346;2023-05-21T02:26:56;26.05;;;20.13;;
11427;SDS011;5770;44.504;11.346;2023-05-21T02:29:24;29.00;;;20.85;;
11427;SDS011;5770;44.504;11.346;2023-05-21T02:31:51;23.88;;;20.92;;
11427;SDS011;5770;44.504;11.346;2023-05-21T02:34:19;29.23;;;21.58;;
11427;SDS011;5770;44.504;11.346;2023-05-21T02:36:46;24.08;;;20.02;;
11427;SDS011;5770;44.504;11.346;2023-05-21T02:39:16;27.38;;;20.55;;
11427;SDS011;5770;44.504;11.346;2023-05-21T02:41:44;26.33;;;20.38;;
11427;SDS011;5770;44.504;11.346;2023-05-21T02:44:11;27.80;;;20.60;;
11427;SDS011;5770;44.504;11.346;2023-05-21T02:46:38;22.58;;;17.92;;
11427;SDS011;5770;44.504;11.346;2023-05-21T02:49:05;23.58;;;18.42;;
11427;SDS011;5770;44.504;11.346;2023-05-21T02:51:34;20.42;;;17.73;;
11427;SDS011;5770;44.504;11.346;2023-05-21T02:54:00;22.23;;;17.27;;
11427;SDS011;5770;44.504;11.346;2023-05-21T02:56:28;27.58;;;18.48;;
11427;SDS011;5770;44.504;11.346;2023-05-21T02:58:55;29.00;;;17.92;;
11427;SDS011;5770;44.504;11.346;2023-05-21T03:01:22;23.95;;;18.50;;
11427;SDS011;5770;44.504;11.346;2023-05-21T03:03:49;21.63;;;17.40;;
11427;SDS011;5770;44.504;11.346;2023-05-21T03:06:17;24.08;;;18.30;;
11427;SDS011;5770;44.504;11.346;2023-05-21T03:08:45;21.48;;;18.00;;
11427;SDS011;5770;44.504;11.346;2023-05-21T03:11:12;23.27;;;18.40;;
11427;SDS011;5770;44.504;11.346;2023-05-21T03:13:40;21.88;;;18.90;;
11427;SDS011;5770;44.504;11.346;2023-05-21T03:16:07;22.75;;;18.42;;
11427;SDS011;5770;44.504;11.346;2023-05-21T03:18:35;24.90;;;19.25;;
11427;SDS011;5770;44.504;11.346;2023-05-21T03:21:02;24.65;;;18.63;;
11427;SDS011;5770;44.504;11.346;2023-05-21T03:23:29;23.77;;;19.30;;
11427;SDS011;5770;44.504;11.346;2023-05-21T03:25:58;23.30;;;19.20;;
11427;SDS011;5770;44.504;11.346;2023-05-21T03:28:26;26.85;;;20.02;;
11427;SDS011;5770;44.504;11.346;2023-05-21T03:30:53;29.85;;;21.13;;
11427;SDS011;5770;44.504;11.346;2023-05-21T03:33:20;23.25;;;20.05;;
11427;SDS011;5770;44.504;11.346;2023-05-21T03:35:48;28.20;;;20.60;;
11427;SDS011;5770;44.504;11.346;2023-05-21T03:38:15;27.52;;;20.38;;
11427;SDS011;5770;44.504;11.346;2023-05-21T03:40:42;25.58;;;19.38;;
11427;SDS011;5770;44.504;11.346;2023-05-21T03:43:10;24.30;;;18.27;;
11427;SDS011;5770;44.504;11.346;2023-05-21T03:45:38;22.35;;;18.00;;
11427;SDS011;5770;44.504;11.346;2023-05-21T03:48:05;22.58;;;18.23;;
11427;SDS011;5770;44.504;11.346;2023-05-21T03:50:32;24.13;;;18.42;;
11427;SDS011;5770;44.504;11.346;2023-05-21T03:53:00;20.05;;;17.77;;
11427;SDS011;5770;44.504;11.346;2023-05-21T03:55:28;23.45;;;18.40;;
11427;SDS011;5770;44.504;11.346;2023-05-21T03:57:55;21.80;;;16.95;;
11427;SDS011;5770;44.504;11.346;2023-05-21T04:00:23;22.67;;;17.45;;
11427;SDS011;5770;44.504;11.346;2023-05-21T04:02:51;21.10;;;17.58;;
11427;SDS011;5770;44.504;11.346;2023-05-21T04:05:18;25.90;;;17.75;;
11427;SDS011;5770;44.504;11.346;2023-05-21T04:07:45;20.42;;;16.30;;
11427;SDS011;5770;44.504;11.346;2023-05-21T04:10:14;21.55;;;16.95;;
11427;SDS011;5770;44.504;11.346;2023-05-21T04:12:41;20.08;;;16.92;;
11427;SDS011;5770;44.504;11.346;2023-05-21T04:15:08;19.25;;;15.20;;
11427;SDS011;5770;44.504;11.346;2023-05-21T04:17:38;19.77;;;16.30;;
11427;SDS011;5770;44.504;11.346;2023-05-21T04:20:08;22.10;;;16.25;;
11427;SDS011;5770;44.504;11.346;2023-05-21T04:22:36;17.65;;;15.75;;
11427;SDS011;5770;44.504;11.346;2023-05-21T04:25:03;19.52;;;15.48;;
11427;SDS011;5770;44.504;11.346;2023-05-21T04:27:30;19.10;;;14.93;;
11427;SDS011;5770;44.504;11.346;2023-05-21T04:29:58;17.35;;;14.38;;
11427;SDS011;5770;44.504;11.346;2023-05-21T04:32:29;19.58;;;13.88;;
11427;SDS011;5770;44.504;11.346;2023-05-21T04:34:58;15.88;;;13.13;;
11427;SDS011;5770;44.504;11.346;2023-05-21T04:37:26;15.35;;;13.27;;
11427;SDS011;5770;44.504;11.346;2023-05-21T04:39:54;15.13;;;13.52;;
11427;SDS011;5770;44.504;11.346;2023-05-21T04:42:21;17.42;;;13.40;;
11427;SDS011;5770;44.504;11.346;2023-05-21T04:44:49;14.38;;;12.85;;
11427;SDS011;5770;44.504;11.346;2023-05-21T04:47:16;16.27;;;13.18;;
11427;SDS011;5770;44.504;11.346;2023-05-21T04:49:43;18.50;;;14.20;;
11427;SDS011;5770;44.504;11.346;2023-05-21T04:52:12;20.27;;;15.18;;
11427;SDS011;5770;44.504;11.346;2023-05-21T04:54:39;19.45;;;15.20;;
11427;SDS011;5770;44.504;11.346;2023-05-21T04:57:07;21.35;;;15.45;;
11427;SDS011;5770;44.504;11.346;2023-05-21T04:59:34;22.30;;;16.67;;
11427;SDS011;5770;44.504;11.346;2023-05-21T05:02:04;25.05;;;17.27;;
11427;SDS011;5770;44.504;11.346;2023-05-21T05:04:31;22.77;;;17.67;;
11427;SDS011;5770;44.504;11.346;2023-05-21T05:06:58;21.67;;;16.83;;
11427;SDS011;5770;44.504;11.346;2023-05-21T05:09:27;20.90;;;16.10;;
11427;SDS011;5770;44.504;11.346;2023-05-21T05:11:55;21.48;;;17.40;;
11427;SDS011;5770;44.504;11.346;2023-05-21T05:14:22;28.23;;;18.27;;
11427;SDS011;5770;44.504;11.346;2023-05-21T05:16:50;21.55;;;16.85;;
11427;SDS011;5770;44.504;11.346;2023-05-21T05:19:18;23.65;;;17.30;;
11427;SDS011;5770;44.504;11.346;2023-05-21T05:21:45;24.77;;;18.27;;
11427;SDS011;5770;44.504;11.346;2023-05-21T05:24:12;24.52;;;17.67;;
11427;SDS011;5770;44.504;11.346;2023-05-21T05:26:41;24.88;;;19.40;;
11427;SDS011;5770;44.504;11.346;2023-05-21T05:29:08;24.70;;;18.48;;
11427;SDS011;5770;44.504;11.346;2023-05-21T05:31:35;26.55;;;19.45;;
11427;SDS011;5770;44.504;11.346;2023-05-21T05:34:03;30.48;;;19.73;;
11427;SDS011;5770;44.504;11.346;2023-05-21T05:36:30;27.80;;;20.08;;
11427;SDS011;5770;44.504;11.346;2023-05-21T05:38:57;29.85;;;21.48;;
11427;SDS011;5770;44.504;11.346;2023-05-21T05:41:24;29.40;;;21.00;;
11427;SDS011;5770;44.504;11.346;2023-05-21T05:43:53;33.05;;;22.33;;
11427;SDS011;5770;44.504;11.346;2023-05-21T05:46:20;31.48;;;21.80;;
11427;SDS011;5770;44.504;11.346;2023-05-21T05:48:47;31.90;;;22.85;;
11427;SDS011;5770;44.504;11.346;2023-05-21T05:51:14;33.03;;;24.77;;
11427;SDS011;5770;44.504;11.346;2023-05-21T05:53:42;35.15;;;23.35;;
11427;SDS011;5770;44.504;11.346;2023-05-21T05:56:09;35.63;;;24.13;;
11427;SDS011;5770;44.504;11.346;2023-05-21T05:58:36;31.23;;;23.17;;
11427;SDS011;5770;44.504;11.346;2023-05-21T06:01:04;36.00;;;25.13;;
11427;SDS011;5770;44.504;11.346;2023-05-21T06:03:31;33.83;;;23.83;;
11427;SDS011;5770;44.504;11.346;2023-05-21T06:05:58;35.75;;;25.85;;
11427;SDS011;5770;44.504;11.346;2023-05-21T06:08:25;35.95;;;25.65;;
11427;SDS011;5770;44.504;11.346;2023-05-21T06:10:53;34.50;;;25.10;;
11427;SDS011;5770;44.504;11.346;2023-05-21T06:13:20;37.15;;;26.48;;
11427;SDS011;5770;44.504;11.346;2023-05-21T06:15:47;35.65;;;25.65;;
11427;SDS011;5770;44.504;11.346;2023-05-21T06:18:16;37.50;;;26.00;;
11427;SDS011;5770;44.504;11.346;2023-05-21T06:20:44;35.97;;;25.33;;
11427;SDS011;5770;44.504;11.346;2023-05-21T06:23:11;39.25;;;27.25;;
11427;SDS011;5770;44.504;11.346;2023-05-21T06:25:38;34.90;;;25.98;;
11427;SDS011;5770;44.504;11.346;2023-05-21T06:28:05;34.95;;;26.50;;
11427;SDS011;5770;44.504;11.346;2023-05-21T06:30:32;42.05;;;28.50;;
11427;SDS011;5770;44.504;11.346;2023-05-21T06:32:59;40.83;;;29.83;;
11427;SDS011;5770;44.504;11.346;2023-05-21T06:35:28;38.28;;;28.60;;
11427;SDS011;5770;44.504;11.346;2023-05-21T06:37:55;41.00;;;29.05;;
11427;SDS011;5770;44.504;11.346;2023-05-21T06:40:23;38.78;;;29.27;;
11427;SDS011;5770;44.504;11.346;2023-05-21T06:42:50;42.90;;;28.73;;
11427;SDS011;5770;44.504;11.346;2023-05-21T06:45:17;41.15;;;29.35;;
11427;SDS011;5770;44.504;11.346;2023-05-21T06:47:44;43.67;;;30.23;;
11427;SDS011;5770;44.504;11.346;2023-05-21T06:50:12;37.60;;;29.40;;
11427;SDS011;5770;44.504;11.346;2023-05-21T06:52:42;43.22;;;29.30;;
11427;SDS011;5770;44.504;11.346;2023-05-21T06:55:09;38.40;;;28.58;;
11427;SDS011;5770;44.504;11.346;2023-05-21T06:57:37;37.72;;;27.70;;
11427;SDS011;5770;44.504;11.346;2023-05-21T07:00:04;39.15;;;27.90;;
11427;SDS011;5770;44.504;11.346;2023-05-21T07:02:33;36.45;;;27.98;;
11427;SDS011;5770;44.504;11.346;2023-05-21T07:05:00;42.22;;;27.52;;
11427;SDS011;5770;44.504;11.346;2023-05-21T07:07:27;35.67;;;27.00;;
11427;SDS011;5770;44.504;11.346;2023-05-21T07:09:56;31.83;;;25.48;;
11427;SDS011;5770;44.504;11.346;2023-05-21T07:12:23;36.28;;;25.45;;
11427;SDS011;5770;44.504;11.346;2023-05-21T07:14:50;33.63;;;26.33;;
11427;SDS011;5770;44.504;11.346;2023-05-21T07:17:18;34.05;;;24.05;;
11427;SDS011;5770;44.504;11.346;2023-05-21T07:19:45;30.63;;;23.75;;
11427;SDS011;5770;44.504;11.346;2023-05-21T07:22:12;29.70;;;24.13;;
11427;SDS011;5770;44.504;11.346;2023-05-21T07:24:39;28.48;;;23.17;;
11427;SDS011;5770;44.504;11.346;2023-05-21T07:27:08;31.70;;;24.40;;
11427;SDS011;5770;44.504;11.346;2023-05-21T07:29:35;32.47;;;24.80;;
11427;SDS011;5770;44.504;11.346;2023-05-21T07:32:02;31.98;;;25.17;;
11427;SDS011;5770;44.504;11.346;2023-05-21T07:34:29;28.77;;;23.75;;
11427;SDS011;5770;44.504;11.346;2023-05-21T07:36:57;31.20;;;24.23;;
11427;SDS011;5770;44.504;11.346;2023-05-21T07:39:24;28.83;;;23.27;;
11427;SDS011;5770;44.504;11.346;2023-05-21T07:41:51;29.73;;;24.85;;
11427;SDS011;5770;44.504;11.346;2023-05-21T07:44:20;30.05;;;25.08;;
11427;SDS011;5770;44.504;11.346;2023-05-21T07:46:47;25.35;;;22.48;;
11427;SDS011;5770;44.504;11.346;2023-05-21T07:49:14;30.05;;;23.95;;
11427;SDS011;5770;44.504;11.346;2023-05-21T07:51:41;27.90;;;24.02;;
11427;SDS011;5770;44.504;11.346;2023-05-21T07:54:08;30.85;;;23.10;;
11427;SDS011;5770;44.504;11.346;2023-05-21T07:56:36;29.40;;;24.40;;
11427;SDS011;5770;44.504;11.346;2023-05-21T07:59:03;29.17;;;23.40;;
11427;SDS011;5770;44.504;11.346;2023-05-21T08:01:32;28.42;;;23.50;;
11427;SDS011;5770;44.504;11.346;2023-05-21T08:04:01;27.65;;;22.85;;
11427;SDS011;5770;44.504;11.346;2023-05-21T08:06:30;29.60;;;23.13;;
11427;SDS011;5770;44.504;11.346;2023-05-21T08:08:58;27.38;;;22.95;;
11427;SDS011;5770;44.504;11.346;2023-05-21T08:11:26;28.50;;;22.63;;
11427;SDS011;5770;44.504;11.346;2023-05-21T08:13:53;31.08;;;23.60;;
11427;SDS011;5770;44.504;11.346;2023-05-21T08:16:21;29.05;;;23.90;;
11427;SDS011;5770;44.504;11.346;2023-05-21T08:18:50;28.83;;;23.48;;
11427;SDS011;5770;44.504;11.346;2023-05-21T08:21:16;30.60;;;22.88;;
11427;SDS011;5770;44.504;11.346;2023-05-21T08:23:44;25.80;;;22.77;;
11427;SDS011;5770;44.504;11.346;2023-05-21T08:26:11;26.67;;;22.95;;
11427;SDS011;5770;44.504;11.346;2023-05-21T08:28:40;26.92;;;23.77;;
11427;SDS011;5770;44.504;11.346;2023-05-21T08:31:07;27.13;;;23.13;;
11427;SDS011;5770;44.504;11.346;2023-05-21T08:33:34;28.58;;;23.10;;
11427;SDS011;5770;44.504;11.346;2023-05-21T08:36:04;26.75;;;22.40;;
11427;SDS011;5770;44.504;11.346;2023-05-21T08:38:34;26.67;;;22.05;;
11427;SDS011;5770;44.504;11.346;2023-05-21T08:41:01;28.38;;;22.52;;
11427;SDS011;5770;44.504;11.346;2023-05-21T08:43:33;26.38;;;21.90;;
11427;SDS011;5770;44.504;11.346;2023-05-21T08:46:03;23.98;;;21.23;;
11427;SDS011;5770;44.504;11.346;2023-05-21T08:48:30;25.83;;;21.55;;
11427;SDS011;5770;44.504;11.346;2023-05-21T08:50:58;26.67;;;19.42;;
11427;SDS011;5770;44.504;11.346;2023-05-21T08:53:27;23.88;;;20.15;;
11427;SDS011;5770;44.504;11.346;2023-05-21T08:55:57;23.17;;;18.60;;
11427;SDS011;5770;44.504;11.346;2023-05-21T08:58:25;20.67;;;18.55;;
11427;SDS011;5770;44.504;11.346;2023-05-21T09:00:54;28.40;;;21.40;;
11427;SDS011;5770;44.504;11.346;2023-05-21T09:03:22;25.35;;;20.73;;
11427;SDS011;5770;44.504;11.346;2023-05-21T09:05:49;25.13;;;20.20;;
11427;SDS011;5770;44.504;11.346;2023-05-21T09:08:18;20.80;;;18.60;;
11427;SDS011;5770;44.504;11.346;2023-05-21T09:10:47;22.85;;;20.35;;
11427;SDS011;5770;44.504;11.346;2023-05-21T09:13:18;21.90;;;18.60;;
11427;SDS011;5770;44.504;11.346;2023-05-21T09:15:46;24.35;;;20.73;;
11427;SDS011;5770;44.504;11.346;2023-05-21T09:18:13;22.02;;;19.75;;
11427;SDS011;5770;44.504;11.346;2023-05-21T09:20:41;24.75;;;20.60;;
11427;SDS011;5770;44.504;11.346;2023-05-21T09:23:09;22.15;;;19.92;;
11427;SDS011;5770;44.504;11.346;2023-05-21T09:25:40;29.50;;;21.52;;
11427;SDS011;5770;44.504;11.346;2023-05-21T09:28:12;25.45;;;21.25;;
11427;SDS011;5770;44.504;11.346;2023-05-21T09:30:43;23.60;;;21.15;;
11427;SDS011;5770;44.504;11.346;2023-05-21T09:33:11;26.20;;;22.55;;
11427;SDS011;5770;44.504;11.346;2023-05-21T09:35:43;24.70;;;21.58;;
11427;SDS011;5770;44.504;11.346;2023-05-21T09:38:11;27.92;;;22.55;;
11427;SDS011;5770;44.504;11.346;2023-05-21T09:40:42;27.63;;;22.42;;
11427;SDS011;5770;44.504;11.346;2023-05-21T09:43:12;23.70;;;21.20;;
11427;SDS011;5770;44.504;11.346;2023-05-21T09:45:43;25.33;;;21.77;;
11427;SDS011;5770;44.504;11.346;2023-05-21T09:48:16;26.90;;;22.08;;
11427;SDS011;5770;44.504;11.346;2023-05-21T09:50:43;28.50;;;20.38;;
11427;SDS011;5770;44.504;11.346;2023-05-21T09:53:11;26.13;;;21.63;;
11427;SDS011;5770;44.504;11.346;2023-05-21T09:55:39;23.88;;;20.75;;
11427;SDS011;5770;44.504;11.346;2023-05-21T09:58:09;23.13;;;20.70;;
11427;SDS011;5770;44.504;11.346;2023-05-21T10:00:36;22.42;;;19.27;;
11427;SDS011;5770;44.504;11.346;2023-05-21T10:03:08;23.88;;;19.98;;
11427;SDS011;5770;44.504;11.346;2023-05-21T10:05:37;25.42;;;19.77;;
11427;SDS011;5770;44.504;11.346;2023-05-21T10:08:06;23.73;;;20.73;;
11427;SDS011;5770;44.504;11.346;2023-05-21T10:10:38;21.50;;;19.20;;
11427;SDS011;5770;44.504;11.346;2023-05-21T10:13:08;23.65;;;19.73;;
11427;SDS011;5770;44.504;11.346;2023-05-21T10:15:41;21.40;;;19.20;;
11427;SDS011;5770;44.504;11.346;2023-05-21T10:18:10;27.02;;;19.60;;
11427;SDS011;5770;44.504;11.346;2023-05-21T10:20:39;24.13;;;19.17;;
11427;SDS011;5770;44.504;11.346;2023-05-21T10:23:07;21.33;;;18.63;;
11427;SDS011;5770;44.504;11.346;2023-05-21T10:25:35;22.25;;;19.85;;
11427;SDS011;5770;44.504;11.346;2023-05-21T10:28:03;40.85;;;21.38;;
11427;SDS011;5770;44.504;11.346;2023-05-21T10:30:31;22.52;;;18.63;;
11427;SDS011;5770;44.504;11.346;2023-05-21T10:32:58;22.80;;;18.75;;
11427;SDS011;5770;44.504;11.346;2023-05-21T10:35:28;21.95;;;18.42;;
11427;SDS011;5770;44.504;11.346;2023-05-21T10:37:57;20.58;;;18.48;;
11427;SDS011;5770;44.504;11.346;2023-05-21T10:40:27;21.45;;;17.80;;
11427;SDS011;5770;44.504;11.346;2023-05-21T10:43:01;20.27;;;18.08;;
11427;SDS011;5770;44.504;11.346;2023-05-21T10:46:04;24.08;;;18.55;;
11427;SDS011;5770;44.504;11.346;2023-05-21T10:48:46;19.10;;;16.80;;
11427;SDS011;5770;44.504;11.346;2023-05-21T10:51:25;22.73;;;17.88;;
11427;SDS011;5770;44.504;11.346;2023-05-21T10:54:02;22.15;;;18.23;;
11427;SDS011;5770;44.504;11.346;2023-05-21T10:56:34;21.55;;;17.27;;
11427;SDS011;5770;44.504;11.346;2023-05-21T10:59:06;19.42;;;17.45;;
11427;SDS011;5770;44.504;11.346;2023-05-21T11:01:39;22.10;;;17.48;;
11427;SDS011;5770;44.504;11.346;2023-05-21T11:04:07;19.58;;;16.77;;
11427;SDS011;5770;44.504;11.346;2023-05-21T11:06:37;20.77;;;17.02;;
11427;SDS011;5770;44.504;11.346;2023-05-21T11:09:10;18.00;;;16.20;;
11427;SDS011;5770;44.504;11.346;2023-05-21T11:11:41;17.45;;;15.75;;
11427;SDS011;5770;44.504;11.346;2023-05-21T11:14:24;17.02;;;15.13;;
11427;SDS011;5770;44.504;11.346;2023-05-21T11:16:52;26.52;;;15.20;;
11427;SDS011;5770;44.504;11.346;2023-05-21T11:19:20;17.67;;;15.73;;
11427;SDS011;5770;44.504;11.346;2023-05-21T11:21:52;17.90;;;16.05;;
11427;SDS011;5770;44.504;11.346;2023-05-21T11:24:21;16.73;;;14.95;;
11427;SDS011;5770;44.504;11.346;2023-05-21T11:26:58;17.65;;;15.93;;
11427;SDS011;5770;44.504;11.346;2023-05-21T11:29:34;16.92;;;14.95;;
11427;SDS011;5770;44.504;11.346;2023-05-21T11:32:04;16.38;;;14.68;;
11427;SDS011;5770;44.504;11.346;2023-05-21T11:34:36;16.35;;;14.48;;
11427;SDS011;5770;44.504;11.346;2023-05-21T11:37:25;16.67;;;14.95;;
11427;SDS011;5770;44.504;11.346;2023-05-21T11:39:54;16.27;;;14.43;;
11427;SDS011;5770;44.504;11.346;2023-05-21T11:42:29;16.70;;;14.90;;
11427;SDS011;5770;44.504;11.346;2023-05-21T11:44:56;19.02;;;16.27;;
11427;SDS011;5770;44.504;11.346;2023-05-21T11:47:28;19.45;;;15.63;;
11427;SDS011;5770;44.504;11.346;2023-05-21T11:49:57;18.55;;;14.63;;
11427;SDS011;5770;44.504;11.346;2023-05-21T11:52:26;16.88;;;15.02;;
11427;SDS011;5770;44.504;11.346;2023-05-21T11:54:54;17.25;;;14.10;;
11427;SDS011;5770;44.504;11.346;2023-05-21T11:57:22;16.25;;;14.65;;
11427;SDS011;5770;44.504;11.346;2023-05-21T11:59:50;15.43;;;13.93;;
11427;SDS011;5770;44.504;11.346;2023-05-21T12:02:18;16.40;;;14.52;;
11427;SDS011;5770;44.504;11.346;2023-05-21T12:04:47;15.98;;;14.32;;
11427;SDS011;5770;44.504;11.346;2023-05-21T12:07:15;15.45;;;13.95;;
11427;SDS011;5770;44.504;11.346;2023-05-21T12:09:44;18.83;;;14.27;;
11427;SDS011;5770;44.504;11.346;2023-05-21T12:12:13;16.33;;;14.73;;
11427;SDS011;5770;44.504;11.346;2023-05-21T12:14:42;16.45;;;14.77;;
11427;SDS011;5770;44.504;11.346;2023-05-21T12:17:09;16.30;;;13.40;;
11427;SDS011;5770;44.504;11.346;2023-05-21T12:19:37;15.50;;;13.80;;
11427;SDS011;5770;44.504;11.346;2023-05-21T12:22:05;16.17;;;14.23;;
11427;SDS011;5770;44.504;11.346;2023-05-21T12:24:33;17.25;;;13.57;;
11427;SDS011;5770;44.504;11.346;2023-05-21T12:27:02;14.77;;;13.38;;
11427;SDS011;5770;44.504;11.346;2023-05-21T12:29:33;14.93;;;13.15;;
11427;SDS011;5770;44.504;11.346;2023-05-21T12:32:02;15.60;;;13.75;;
11427;SDS011;5770;44.504;11.346;2023-05-21T12:34:37;15.00;;;13.60;;
11427;SDS011;5770;44.504;11.346;2023-05-21T12:37:05;15.02;;;12.18;;
11427;SDS011;5770;44.504;11.346;2023-05-21T12:39:36;14.60;;;13.00;;
11427;SDS011;5770;44.504;11.346;2023-05-21T12:42:05;14.90;;;13.38;;
11427;SDS011;5770;44.504;11.346;2023-05-21T12:44:33;20.13;;;13.30;;
11427;SDS011;5770;44.504;11.346;2023-05-21T12:47:01;17.63;;;13.30;;
11427;SDS011;5770;44.504;11.346;2023-05-21T12:49:35;15.38;;;13.88;;
11427;SDS011;5770;44.504;11.346;2023-05-21T12:52:03;16.00;;;12.98;;
11427;SDS011;5770;44.504;11.346;2023-05-21T12:54:32;18.13;;;13.93;;
11427;SDS011;5770;44.504;11.346;2023-05-21T12:57:10;14.43;;;12.98;;
11427;SDS011;5770;44.504;11.346;2023-05-21T12:59:43;16.80;;;13.02;;
11427;SDS011;5770;44.504;11.346;2023-05-21T13:02:12;16.50;;;13.25;;
11427;SDS011;5770;44.504;11.346;2023-05-21T13:04:41;16.33;;;13.50;;
11427;SDS011;5770;44.504;11.346;2023-05-21T13:07:08;14.95;;;13.00;;
11427;SDS011;5770;44.504;11.346;2023-05-21T13:09:36;15.98;;;14.07;;
11427;SDS011;5770;44.504;11.346;2023-05-21T13:12:03;16.02;;;14.15;;
11427;SDS011;5770;44.504;11.346;2023-05-21T13:14:32;15.77;;;13.73;;
11427;SDS011;5770;44.504;11.346;2023-05-21T13:16:59;16.15;;;14.48;;
11427;SDS011;5770;44.504;11.346;2023-05-21T13:19:28;26.00;;;21.95;;
11427;SDS011;5770;44.504;11.346;2023-05-21T13:21:56;15.90;;;13.73;;
11427;SDS011;5770;44.504;11.346;2023-05-21T13:24:23;15.77;;;14.05;;
11427;SDS011;5770;44.504;11.346;2023-05-21T13:26:50;14.93;;;13.32;;
11427;SDS011;5770;44.504;11.346;2023-05-21T13:29:18;14.52;;;13.02;;
11427;SDS011;5770;44.504;11.346;2023-05-21T13:31:46;14.88;;;13.38;;
11427;SDS011;5770;44.504;11.346;2023-05-21T13:34:13;14.73;;;12.90;;
11427;SDS011;5770;44.504;11.346;2023-05-21T13:36:41;15.55;;;12.25;;
11427;SDS011;5770;44.504;11.346;2023-05-21T13:39:08;16.88;;;12.52;;
11427;SDS011;5770;44.504;11.346;2023-05-21T13:41:35;13.63;;;11.93;;
11427;SDS011;5770;44.504;11.346;2023-05-21T13:44:02;14.10;;;12.77;;
11427;SDS011;5770;44.504;11.346;2023-05-21T13:46:30;14.60;;;13.10;;
11427;SDS011;5770;44.504;11.346;2023-05-21T13:48:58;17.15;;;14.05;;
11427;SDS011;5770;44.504;11.346;2023-05-21T13:51:27;17.75;;;13.75;;
11427;SDS011;5770;44.504;11.346;2023-05-21T13:53:54;13.60;;;12.25;;
11427;SDS011;5770;44.504;11.346;2023-05-21T13:56:22;14.90;;;11.90;;
11427;SDS011;5770;44.504;11.346;2023-05-21T13:58:49;12.65;;;11.35;;
11427;SDS011;5770;44.504;11.346;2023-05-21T14:01:16;13.60;;;10.80;;
11427;SDS011;5770;44.504;11.346;2023-05-21T14:03:43;12.57;;;11.27;;
11427;SDS011;5770;44.504;11.346;2023-05-21T14:06:12;12.52;;;11.32;;
11427;SDS011;5770;44.504;11.346;2023-05-21T14:08:39;13.75;;;12.20;;
11427;SDS011;5770;44.504;11.346;2023-05-21T14:11:06;12.40;;;11.25;;
11427;SDS011;5770;44.504;11.346;2023-05-21T14:13:34;11.75;;;10.65;;
11427;SDS011;5770;44.504;11.346;2023-05-21T14:16:01;11.48;;;10.38;;
11427;SDS011;5770;44.504;11.346;2023-05-21T14:18:28;12.20;;;10.98;;
11427;SDS011;5770;44.504;11.346;2023-05-21T14:20:58;12.35;;;11.13;;
11427;SDS011;5770;44.504;11.346;2023-05-21T14:23:26;11.00;;;9.80;;
11427;SDS011;5770;44.504;11.346;2023-05-21T14:25:53;12.05;;;9.75;;
11427;SDS011;5770;44.504;11.346;2023-05-21T14:28:20;12.52;;;11.18;;